createdAt,value
2022-10-04T00:01:06.910Z,9.62
2022-10-04T00:03:47.610Z,7.47
2022-10-04T00:06:24.622Z,11.93
2022-10-04T00:09:16.287Z,17.73
2022-10-04T00:11:48.633Z,10.45
2022-10-04T00:14:39.035Z,10.95
2022-10-04T00:17:17.156Z,7.03
2022-10-04T00:19:49.159Z,11.82
2022-10-04T00:22:56.702Z,10.13
2022-10-04T00:25:35.310Z,11.80
2022-10-04T00:28:40.617Z,9.52
2022-10-04T00:31:26.215Z,16.60
2022-10-04T00:34:14.505Z,6.10
2022-10-04T00:36:59.900Z,12.00
2022-10-04T00:39:39.629Z,10.27
2022-10-04T00:42:24.928Z,5.82
2022-10-04T00:45:08.709Z,8.27
2022-10-04T00:48:01.307Z,4.93
2022-10-04T00:50:59.853Z,5.60
2022-10-04T00:53:54.025Z,8.77
2022-10-04T00:56:29.948Z,7.43
2022-10-04T00:59:03.465Z,7.30
2022-10-04T01:04:03.681Z,9.70
2022-10-04T01:06:32.572Z,8.35
2022-10-04T01:09:05.852Z,10.38
2022-10-04T01:11:42.965Z,4.82
2022-10-04T01:14:13.682Z,12.20
2022-10-04T01:16:42.071Z,5.78
2022-10-04T01:19:27.303Z,9.55
2022-10-04T01:22:15.324Z,5.00
2022-10-04T01:24:46.219Z,7.53
2022-10-04T01:27:41.893Z,8.27
2022-10-04T01:30:21.158Z,8.40
2022-10-04T01:32:54.691Z,11.43
2022-10-04T01:35:22.692Z,6.28
2022-10-04T01:37:52.972Z,11.60
2022-10-04T01:40:22.554Z,9.18
2022-10-04T01:42:55.162Z,8.68
2022-10-04T01:45:48.265Z,8.43
2022-10-04T01:48:22.091Z,8.77
2022-10-04T01:51:05.140Z,7.18
2022-10-04T01:53:38.097Z,9.00
2022-10-04T01:56:29.815Z,11.07
2022-10-04T01:59:04.087Z,11.27
2022-10-04T02:01:57.434Z,11.02
2022-10-04T02:04:29.785Z,10.57
2022-10-04T02:06:59.914Z,11.18
2022-10-04T02:09:32.378Z,12.73
2022-10-04T02:12:00.975Z,14.32
2022-10-04T02:14:33.415Z,9.35
2022-10-04T02:17:03.781Z,10.10
2022-10-04T02:19:40.480Z,11.00
2022-10-04T02:22:11.361Z,10.23
2022-10-04T02:24:45.842Z,11.18
2022-10-04T02:27:14.575Z,14.07
2022-10-04T02:29:42.433Z,9.98
2022-10-04T02:32:29.384Z,13.73
2022-10-04T02:35:00.528Z,14.80
2022-10-04T02:37:31.692Z,16.67
2022-10-04T02:40:08.693Z,16.83
2022-10-04T02:42:44.733Z,14.10
2022-10-04T02:45:25.470Z,16.58
2022-10-04T02:48:07.841Z,14.48
2022-10-04T02:50:40.325Z,10.02
2022-10-04T02:53:32.839Z,9.82
2022-10-04T02:56:03.417Z,13.40
2022-10-04T02:58:33.827Z,15.27
2022-10-04T03:01:02.331Z,13.35
2022-10-04T03:03:39.693Z,19.55
2022-10-04T03:06:15.645Z,12.05
2022-10-04T03:09:16.539Z,14.40
2022-10-04T03:11:45.098Z,15.57
2022-10-04T03:14:25.788Z,14.18
2022-10-04T03:17:03.588Z,14.85
2022-10-04T03:19:38.632Z,13.00
2022-10-04T03:22:15.908Z,17.02
2022-10-04T03:24:50.424Z,13.63
2022-10-04T03:27:25.639Z,9.43
2022-10-04T03:29:59.191Z,12.60
2022-10-04T03:32:41.314Z,11.73
2022-10-04T03:35:29.680Z,15.27
2022-10-04T03:38:05.637Z,15.88
2022-10-04T03:40:38.906Z,13.00
2022-10-04T03:43:07.114Z,15.70
2022-10-04T03:45:38.049Z,17.50
2022-10-04T03:48:09.022Z,14.15
2022-10-04T03:50:47.333Z,18.05
2022-10-04T03:53:19.808Z,14.20
2022-10-04T03:55:59.872Z,17.63
2022-10-04T03:58:31.271Z,12.63
2022-10-04T04:01:12.351Z,13.85
2022-10-04T04:04:01.825Z,14.23
2022-10-04T04:06:43.779Z,21.13
2022-10-04T04:09:27.151Z,16.90
2022-10-04T04:11:58.203Z,17.70
2022-10-04T04:14:29.314Z,14.68
2022-10-04T04:17:30.525Z,17.98
2022-10-04T04:20:07.647Z,16.63
2022-10-04T04:22:40.344Z,13.27
2022-10-04T04:25:14.938Z,17.95
2022-10-04T04:27:44.167Z,12.95
2022-10-04T04:30:19.427Z,11.32
2022-10-04T04:32:51.704Z,13.18
2022-10-04T04:35:32.567Z,16.17
2022-10-04T04:38:04.490Z,15.05
2022-10-04T04:40:32.024Z,19.35
2022-10-04T04:43:02.038Z,17.27
2022-10-04T04:45:32.162Z,24.10
2022-10-04T04:48:03.763Z,12.20
2022-10-04T04:50:37.494Z,16.67
2022-10-04T04:53:07.759Z,14.63
2022-10-04T04:56:03.498Z,10.88
2022-10-04T04:58:45.582Z,14.30
2022-10-04T05:01:26.204Z,17.40
2022-10-04T05:04:04.184Z,13.88
2022-10-04T05:06:33.074Z,12.63
2022-10-04T05:09:00.647Z,13.95
2022-10-04T05:11:34.952Z,15.93
2022-10-04T05:14:16.419Z,14.00
2022-10-04T05:16:58.857Z,13.30
2022-10-04T05:19:36.348Z,21.05
2022-10-04T05:22:26.499Z,25.05
2022-10-04T05:25:10.442Z,15.93
2022-10-04T05:27:43.176Z,23.02
2022-10-04T05:30:23.203Z,13.23
2022-10-04T05:33:07.583Z,17.08
2022-10-04T05:36:07.703Z,12.70
2022-10-04T05:39:08.288Z,16.90
2022-10-04T05:42:28.468Z,13.00
2022-10-04T05:45:04.797Z,15.10
2022-10-04T05:47:34.839Z,12.27
2022-10-04T05:50:04.010Z,10.65
2022-10-04T05:52:37.405Z,13.85
2022-10-04T06:01:30.032Z,14.27
2022-10-04T06:04:25.702Z,16.88
2022-10-04T06:07:55.231Z,11.30
2022-10-04T06:11:02.132Z,20.00
2022-10-04T06:17:34.571Z,15.00
2022-10-04T06:20:27.900Z,19.58
2022-10-04T06:23:23.891Z,15.03
2022-10-04T06:26:10.418Z,18.40
2022-10-04T06:28:55.695Z,17.50
2022-10-04T06:31:57.131Z,18.42
2022-10-04T06:35:00.339Z,13.40
2022-10-04T06:37:40.478Z,21.75
2022-10-04T06:40:50.055Z,22.98
2022-10-04T06:43:45.039Z,23.35
2022-10-04T06:46:27.856Z,15.63
2022-10-04T06:49:40.598Z,13.27
2022-10-04T06:52:17.327Z,34.65
2022-10-04T06:54:57.107Z,17.13
2022-10-04T06:57:41.976Z,19.30
2022-10-04T07:00:34.261Z,19.88
2022-10-04T07:03:15.233Z,21.13
2022-10-04T07:06:30.386Z,21.73
2022-10-04T07:09:05.820Z,24.27
2022-10-04T07:11:58.968Z,16.83
2022-10-04T07:14:39.264Z,15.37
2022-10-04T07:17:19.837Z,24.35
2022-10-04T07:19:59.305Z,15.45
2022-10-04T07:22:51.996Z,19.08
2022-10-04T07:25:33.389Z,21.90
2022-10-04T07:28:37.610Z,29.33
2022-10-04T07:31:28.703Z,16.45
2022-10-04T07:34:31.185Z,28.20
2022-10-04T07:37:19.639Z,22.75
2022-10-04T07:40:41.397Z,20.10
2022-10-04T07:43:28.337Z,25.25
2022-10-04T07:46:20.396Z,23.88
2022-10-04T07:48:58.317Z,28.77
2022-10-04T07:51:57.991Z,20.27
2022-10-04T07:54:47.365Z,22.88
2022-10-04T07:57:45.690Z,26.90
2022-10-04T08:00:27.162Z,18.88
2022-10-04T08:03:25.533Z,18.05
2022-10-04T08:06:13.241Z,22.10
2022-10-04T08:09:17.705Z,15.98
2022-10-04T08:14:41.041Z,18.58
2022-10-04T08:17:15.411Z,14.45
2022-10-04T08:20:40.235Z,13.73
2022-10-04T08:23:29.394Z,20.02
2022-10-04T08:26:35.422Z,24.15
2022-10-04T08:30:01.899Z,11.05
2022-10-04T08:33:10.219Z,24.27
2022-10-04T08:35:58.359Z,16.00
2022-10-04T08:38:57.746Z,18.27
2022-10-04T08:41:51.798Z,14.48
2022-10-04T08:47:32.349Z,29.98
2022-10-04T08:50:05.951Z,18.65
2022-10-04T08:53:12.568Z,9.07
2022-10-04T08:56:19.450Z,6.05
2022-10-04T08:59:07.429Z,7.03
2022-10-04T09:02:01.998Z,7.30
2022-10-04T09:05:12.476Z,10.40
2022-10-04T09:08:24.498Z,10.32
2022-10-04T09:11:23.679Z,5.00
2022-10-04T09:14:08.641Z,5.75
2022-10-04T09:16:53.237Z,5.78
2022-10-04T09:19:51.398Z,5.57
2022-10-04T09:22:30.000Z,7.35
2022-10-04T09:25:14.671Z,6.05
2022-10-04T09:28:02.341Z,2.35
2022-10-04T09:31:10.177Z,2.92
2022-10-04T09:34:02.243Z,4.30
2022-10-04T09:36:49.767Z,3.83
2022-10-04T09:40:04.624Z,10.32
2022-10-04T09:42:41.705Z,3.67
2022-10-04T09:45:21.828Z,2.83
2022-10-04T09:48:27.730Z,9.63
2022-10-04T09:51:32.761Z,9.32
2022-10-04T09:54:34.349Z,4.07
2022-10-04T09:57:48.696Z,2.15
2022-10-04T10:00:33.474Z,5.45
2022-10-04T10:03:22.649Z,3.17
2022-10-04T10:05:59.432Z,3.15
2022-10-04T10:08:28.455Z,4.38
2022-10-04T10:11:40.599Z,4.05
2022-10-04T10:14:30.536Z,3.40
2022-10-04T10:17:22.979Z,4.82
2022-10-04T10:20:07.904Z,7.97
2022-10-04T10:23:01.609Z,4.82
2022-10-04T10:25:54.604Z,9.15
2022-10-04T10:32:32.844Z,4.70
2022-10-04T10:35:55.755Z,5.57
2022-10-04T10:42:28.281Z,2.88
2022-10-04T10:46:02.481Z,4.80
2022-10-04T10:48:54.766Z,9.83
2022-10-04T10:52:01.048Z,3.47
2022-10-04T10:55:30.006Z,4.30
2022-10-04T10:58:52.445Z,5.35
2022-10-04T11:05:08.991Z,6.22
2022-10-04T11:08:22.319Z,3.22
2022-10-04T11:11:29.159Z,0.98
2022-10-04T11:14:41.747Z,3.10
2022-10-04T11:17:57.974Z,3.05
2022-10-04T11:21:25.577Z,2.35
2022-10-04T11:24:27.356Z,4.68
2022-10-04T11:27:16.232Z,5.13
2022-10-04T11:30:38.793Z,2.80
2022-10-04T11:33:42.666Z,18.30
2022-10-04T11:36:27.036Z,1.98
2022-10-04T11:39:41.447Z,6.97
2022-10-04T11:42:29.848Z,2.13
2022-10-04T11:45:23.906Z,2.10
2022-10-04T11:48:14.506Z,4.03
2022-10-04T11:51:13.239Z,5.20
2022-10-04T11:54:12.192Z,4.00
2022-10-04T12:00:21.816Z,3.75
2022-10-04T12:03:14.348Z,7.07
2022-10-04T12:06:25.860Z,6.88
2022-10-04T12:09:23.624Z,1.30
2022-10-04T12:12:30.285Z,1.15
2022-10-04T12:15:36.349Z,1.88
2022-10-04T12:18:41.682Z,1.30
2022-10-04T12:24:54.803Z,3.85
2022-10-04T12:31:10.703Z,5.43
2022-10-04T12:33:57.133Z,2.70
2022-10-04T12:37:01.342Z,2.75
2022-10-04T12:39:46.298Z,4.13
2022-10-04T12:42:31.614Z,3.90
2022-10-04T12:45:25.345Z,3.75
2022-10-04T12:48:19.832Z,2.13
2022-10-04T12:51:25.215Z,2.05
2022-10-04T12:54:10.684Z,3.50
2022-10-04T12:57:11.626Z,4.95
2022-10-04T13:00:11.664Z,2.75
2022-10-04T13:03:11.959Z,7.93
2022-10-04T13:10:25.534Z,4.72
2022-10-04T13:13:57.321Z,14.63
2022-10-04T13:17:34.566Z,3.55
2022-10-04T13:20:37.034Z,5.55
2022-10-04T13:27:15.513Z,4.45
2022-10-04T13:30:07.179Z,4.40
2022-10-04T13:33:09.725Z,5.20
2022-10-04T13:36:37.290Z,8.63
2022-10-04T13:40:09.518Z,4.85
2022-10-04T13:54:20.776Z,7.38
2022-10-04T13:57:25.996Z,3.20
2022-10-04T14:00:22.126Z,5.55
2022-10-04T14:03:30.226Z,1.52
2022-10-04T14:09:45.561Z,6.40
2022-10-04T14:12:56.211Z,3.33
2022-10-04T14:15:47.923Z,3.17
2022-10-04T14:18:48.759Z,5.97
2022-10-04T14:21:45.337Z,3.03
2022-10-04T14:25:06.709Z,5.18
2022-10-04T14:28:19.483Z,5.00
2022-10-04T14:31:40.051Z,4.43
2022-10-04T14:34:41.809Z,3.95
2022-10-04T14:37:39.900Z,4.63
2022-10-04T14:40:52.159Z,4.22
2022-10-04T14:44:02.038Z,3.88
2022-10-04T14:47:13.516Z,3.72
2022-10-04T14:50:13.515Z,1.92
2022-10-04T14:53:49.964Z,2.38
2022-10-04T14:56:59.078Z,5.38
2022-10-04T14:59:51.899Z,2.35
2022-10-04T15:02:36.972Z,4.15
2022-10-04T15:05:47.844Z,2.42
2022-10-04T15:08:23.494Z,2.25
2022-10-04T15:11:04.064Z,3.75
2022-10-04T15:14:01.080Z,4.45
2022-10-04T15:17:08.028Z,7.28
2022-10-04T15:20:24.606Z,8.38
2022-10-04T15:23:16.821Z,1.55
2022-10-04T15:26:24.862Z,3.90
2022-10-04T15:29:07.918Z,1.05
2022-10-04T15:31:52.989Z,2.53
2022-10-04T15:34:38.946Z,3.42
2022-10-04T15:37:14.978Z,3.88
2022-10-04T15:40:21.913Z,5.22
2022-10-04T15:43:10.728Z,7.30
2022-10-04T15:46:05.765Z,1.73
2022-10-04T15:51:58.797Z,5.03
2022-10-04T15:55:26.665Z,4.45
2022-10-04T15:58:10.750Z,3.28
2022-10-04T16:06:23.987Z,3.20
2022-10-04T16:09:28.235Z,1.55
2022-10-04T16:12:44.482Z,2.80
2022-10-04T16:15:50.313Z,7.95
2022-10-04T16:18:52.876Z,6.10
2022-10-04T16:21:55.409Z,3.92
2022-10-04T16:25:04.758Z,7.75
2022-10-04T16:28:06.107Z,10.68
2022-10-04T16:30:48.465Z,2.38
2022-10-04T16:33:45.155Z,4.60
2022-10-04T16:36:35.054Z,2.75
2022-10-04T16:42:25.889Z,6.15
2022-10-04T16:45:05.103Z,5.15
2022-10-04T16:47:51.140Z,4.28
2022-10-04T16:51:04.127Z,1.73
2022-10-04T16:54:05.199Z,8.05
2022-10-04T16:56:54.744Z,3.63
2022-10-04T16:59:58.296Z,5.65
2022-10-04T17:02:55.542Z,5.33
2022-10-04T17:05:49.348Z,4.40
2022-10-04T17:08:53.947Z,5.60
2022-10-04T17:11:59.537Z,3.45
2022-10-04T17:15:20.900Z,4.22
2022-10-04T17:18:10.595Z,1.90
2022-10-04T17:20:51.964Z,4.88
2022-10-04T17:24:21.621Z,11.52
2022-10-04T17:27:09.953Z,6.05
2022-10-04T17:29:58.785Z,2.58
2022-10-04T17:32:49.970Z,6.03
2022-10-04T17:35:38.556Z,5.25
2022-10-04T17:38:30.172Z,3.13
2022-10-04T17:41:19.084Z,3.60
2022-10-04T17:43:56.357Z,3.05
2022-10-04T17:46:40.393Z,3.08
2022-10-04T17:50:06.816Z,2.30
2022-10-04T17:53:26.786Z,3.58
2022-10-04T17:56:15.353Z,6.00
2022-10-04T18:02:23.822Z,10.07
2022-10-04T18:05:15.055Z,7.47
2022-10-04T18:08:18.812Z,9.00
2022-10-04T18:11:11.949Z,10.23
2022-10-04T18:14:26.408Z,4.80
2022-10-04T18:17:13.874Z,9.45
2022-10-04T18:20:02.440Z,7.93
2022-10-04T18:23:07.883Z,3.28
2022-10-04T18:25:59.244Z,3.33
2022-10-04T18:28:40.933Z,3.38
2022-10-04T18:31:44.741Z,4.68
2022-10-04T18:34:38.408Z,7.13
2022-10-04T18:37:45.216Z,4.28
2022-10-04T18:40:21.098Z,4.75
2022-10-04T18:43:22.261Z,11.07
2022-10-04T18:46:53.379Z,6.95
2022-10-04T20:50:36.022Z,7.90
2022-10-04T20:58:12.997Z,7.40
2022-10-04T21:06:41.758Z,8.90
2022-10-04T21:09:26.055Z,6.83
2022-10-04T21:16:50.748Z,11.63
2022-10-04T21:20:10.257Z,7.90
2022-10-04T21:32:03.770Z,13.02
2022-10-04T21:36:15.930Z,9.27
2022-10-04T21:51:26.522Z,8.63
2022-10-04T21:57:07.559Z,7.95
2022-10-04T21:59:34.847Z,18.67
2022-10-04T22:02:02.311Z,10.85
2022-10-04T22:04:32.206Z,8.65
2022-10-04T22:07:02.753Z,15.18
2022-10-04T22:09:34.233Z,14.73
2022-10-04T22:12:01.719Z,20.40
2022-10-04T22:14:29.187Z,23.08
2022-10-04T22:16:57.240Z,18.75
2022-10-04T22:19:24.689Z,13.73
2022-10-04T22:21:52.014Z,10.45
2022-10-04T22:24:21.243Z,18.52
2022-10-04T22:26:49.020Z,14.20
2022-10-04T22:29:18.585Z,11.43
2022-10-04T22:31:52.983Z,13.10
2022-10-04T22:34:23.981Z,11.93
2022-10-04T22:36:53.281Z,10.13
2022-10-04T22:39:24.033Z,11.27
2022-10-04T22:41:58.716Z,9.57
2022-10-04T22:44:30.313Z,10.48
2022-10-04T22:47:00.581Z,10.88
2022-10-04T22:49:43.548Z,5.93
2022-10-04T22:52:31.694Z,11.80
2022-10-04T22:55:02.743Z,7.15
2022-10-04T22:57:31.090Z,10.68
2022-10-04T22:59:58.587Z,11.60
2022-10-04T23:02:30.323Z,10.45
2022-10-04T23:05:18.565Z,10.23
2022-10-04T23:07:47.877Z,7.85
2022-10-04T23:10:19.191Z,13.70
2022-10-04T23:12:49.269Z,9.90
2022-10-04T23:15:20.047Z,6.78
2022-10-04T23:17:54.659Z,12.73
2022-10-04T23:20:25.563Z,11.95
2022-10-04T23:22:55.247Z,8.85
2022-10-04T23:25:30.155Z,9.82
2022-10-04T23:28:02.356Z,6.03
2022-10-04T23:30:29.901Z,8.80
2022-10-04T23:33:00.729Z,14.45
2022-10-04T23:35:33.347Z,6.18
2022-10-04T23:38:07.448Z,11.15
2022-10-04T23:40:34.866Z,8.73
2022-10-04T23:43:05.982Z,8.88
2022-10-04T23:45:38.244Z,8.43
2022-10-04T23:48:13.364Z,5.25
2022-10-04T23:50:41.406Z,6.28
2022-10-04T23:53:24.049Z,7.65
2022-10-04T23:55:51.596Z,6.72
2022-10-04T23:58:32.449Z,14.15
